To NAV CANADA Home Page Login to a new session Search on AWWS site Feedback and Comments Disclaimer Vers la page française équivalente Tips FAQ What's new on the site To the Forecasts and Observations / NOTAM section To "File a Flight Plan" website Publications and other links Update of the User's profile FIC Telephone Numbers My Weather Data Folder Route Weather Data Regional Weather Data Local Weather Data To the Forecasts and Observations / NOTAM section
Request Generated 10/18/2017 at 04:00:15 UTC . Weather information available at that time is displayed.

METAR/TAF

MONCTON/GREATER MONCTON ROMEO LEBLANC INTL/NB    

METAR CYQM 180300Z 22007KT 15SM BKN099 04/M01 A3009 RMK AC6 SLP194=
METAR CYQM 180200Z 21007KT 15SM FEW088 02/M02 A3010 RMK AC1 SLP197=
SPECI CYQM 180150Z 21007KT 15SM FEW088 02/M03 A3011 RMK AC1 SLP199=
METAR CYQM 180100Z 22008KT 15SM SKC 03/M03 A3010 RMK SLP198=

TAF CYQM 172339Z 1800/1824 19006KT P6SM FEW250
BECMG 1801/1803 20010KT
FM180500 20010KT P6SM BKN060 TEMPO 1805/1811 P6SM -SHRA
FM181100 23010KT P6SM SCT030
BECMG 1811/1813 22012G22KT
BECMG 1813/1815 28015G25KT
FM182200 28012KT P6SM SKC
RMK NXT FCST BY 180600Z=
Your time UTC time
Weather data provided by Environment Canada and NAV CANADA